createdAt,value
2019-01-27T00:04:10.888Z,7.00
2019-01-27T00:09:09.228Z,7.00
2019-01-27T00:14:03.124Z,7.10
2019-01-27T00:18:55.965Z,7.10
2019-01-27T00:23:48.824Z,7.10
2019-01-27T00:28:41.640Z,7.20
2019-01-27T00:33:34.484Z,7.20
2019-01-27T00:38:27.314Z,7.20
2019-01-27T00:43:20.263Z,7.30
2019-01-27T00:48:13.348Z,7.30
2019-01-27T00:53:06.224Z,7.30
2019-01-27T00:57:59.049Z,7.30
2019-01-27T01:02:51.885Z,7.30
2019-01-27T01:07:45.116Z,7.20
2019-01-27T01:12:37.967Z,7.20
2019-01-27T01:17:30.799Z,7.10
2019-01-27T01:22:23.684Z,7.00
2019-01-27T01:32:09.677Z,6.70
2019-01-27T01:37:02.514Z,6.70
2019-01-27T01:41:55.353Z,6.70
2019-01-27T01:46:48.199Z,6.60
2019-01-27T01:51:41.052Z,6.60
2019-01-27T01:56:33.881Z,6.50
2019-01-27T02:01:26.713Z,6.50
2019-01-27T02:06:20.617Z,6.40
2019-01-27T02:11:13.444Z,6.40
2019-01-27T02:16:08.729Z,6.40
2019-01-27T02:21:02.004Z,6.50
2019-01-27T02:25:55.130Z,6.50
2019-01-27T02:30:47.981Z,6.50
2019-01-27T02:35:40.816Z,6.50
2019-01-27T02:40:33.773Z,6.60
2019-01-27T02:45:26.596Z,6.50
2019-01-27T02:50:19.488Z,6.50
2019-01-27T02:55:12.617Z,6.60
2019-01-27T03:00:07.183Z,6.80
2019-01-27T03:05:01.975Z,6.70
2019-01-27T03:09:54.826Z,6.80
2019-01-27T03:14:47.645Z,6.90
2019-01-27T03:19:40.488Z,7.00
2019-01-27T03:24:33.367Z,7.10
2019-01-27T03:29:26.196Z,7.10
2019-01-27T03:34:19.981Z,7.30
2019-01-27T03:39:12.932Z,7.30
2019-01-27T03:44:06.818Z,7.30
2019-01-27T03:48:59.676Z,7.30
2019-01-27T03:53:52.504Z,7.40
2019-01-27T03:58:45.333Z,7.40
2019-01-27T04:03:38.167Z,7.40
2019-01-27T04:08:30.998Z,7.30
2019-01-27T04:13:23.853Z,7.30
2019-01-27T04:18:16.678Z,7.30
2019-01-27T04:23:09.529Z,7.30
2019-01-27T04:28:02.382Z,7.20
2019-01-27T04:32:55.210Z,7.20
2019-01-27T04:37:48.050Z,7.20
2019-01-27T04:42:40.869Z,7.00
2019-01-27T04:47:33.729Z,7.00
2019-01-27T04:52:26.552Z,7.00
2019-01-27T04:57:19.383Z,7.00
2019-01-27T05:02:12.214Z,7.00
2019-01-27T05:07:05.042Z,7.00
2019-01-27T05:11:57.842Z,6.90
2019-01-27T05:16:50.680Z,7.00
2019-01-27T05:21:43.533Z,6.90
2019-01-27T05:26:36.380Z,7.00
2019-01-27T05:31:29.224Z,6.90
2019-01-27T05:36:22.056Z,6.80
2019-01-27T05:41:14.917Z,6.80
2019-01-27T05:46:07.757Z,6.70
2019-01-27T05:51:00.614Z,6.70
2019-01-27T05:55:53.438Z,6.70
2019-01-27T06:00:47.005Z,6.70
2019-01-27T06:05:39.829Z,6.70
2019-01-27T06:10:32.695Z,6.70
2019-01-27T06:15:25.604Z,6.70
2019-01-27T06:20:18.497Z,6.70
2019-01-27T06:25:14.244Z,6.70
2019-01-27T06:30:12.772Z,6.70
2019-01-27T06:35:05.885Z,6.70
2019-01-27T06:39:58.692Z,6.70
2019-01-27T06:44:51.529Z,6.70
2019-01-27T06:49:44.378Z,6.70
2019-01-27T06:54:37.228Z,6.70
2019-01-27T06:59:34.512Z,6.70
2019-01-27T07:04:31.668Z,6.70
2019-01-27T07:09:49.871Z,6.70
2019-01-27T07:15:00.529Z,6.80
2019-01-27T07:20:12.960Z,7.00
2019-01-27T07:25:29.165Z,7.10
2019-01-27T07:30:56.840Z,7.10
2019-01-27T07:36:00.141Z,7.10
2019-01-27T07:40:58.751Z,7.10
2019-01-27T07:46:12.213Z,7.00
2019-01-27T07:51:39.463Z,7.00
2019-01-27T07:56:49.541Z,7.10
2019-01-27T08:01:58.476Z,7.10
2019-01-27T08:07:13.505Z,7.00
2019-01-27T08:12:13.792Z,7.10
2019-01-27T08:17:44.656Z,7.20
2019-01-27T08:22:59.892Z,7.30
2019-01-27T08:28:10.480Z,7.40
2019-01-27T08:33:22.945Z,7.60
2019-01-27T08:38:38.105Z,7.80
2019-01-27T08:43:56.549Z,8.10
2019-01-27T08:48:49.427Z,9.00
2019-01-27T08:53:42.313Z,9.10
2019-01-27T08:58:35.112Z,9.10
2019-01-27T09:04:05.941Z,8.80
2019-01-27T09:09:13.427Z,8.60
2019-01-27T09:14:25.780Z,8.50
2019-01-27T09:19:41.257Z,8.50
2019-01-27T09:24:55.152Z,8.30
2019-01-27T09:30:11.956Z,8.30
2019-01-27T09:35:17.624Z,8.30
2019-01-27T09:40:34.285Z,8.30
2019-01-27T09:45:57.801Z,8.40
2019-01-27T09:50:44.735Z,8.40
2019-01-27T09:55:47.968Z,8.40
2019-01-27T10:00:52.226Z,8.40
2019-01-27T10:06:03.280Z,8.40
2019-01-27T10:11:26.643Z,8.40
2019-01-27T10:16:39.254Z,8.50
2019-01-27T10:21:39.416Z,8.60
2019-01-27T10:26:40.166Z,8.80
2019-01-27T10:31:40.120Z,8.80
2019-01-27T10:37:11.800Z,8.70
2019-01-27T10:42:06.159Z,8.60
2019-01-27T10:47:19.014Z,8.60
2019-01-27T10:52:21.614Z,8.50
2019-01-27T10:57:19.899Z,8.60
2019-01-27T11:02:41.619Z,8.70
2019-01-27T11:08:09.230Z,8.50
2019-01-27T11:13:18.277Z,8.50
2019-01-27T11:18:36.900Z,8.60
2019-01-27T11:23:48.010Z,8.60
2019-01-27T11:28:56.322Z,8.70
2019-01-27T11:34:08.733Z,8.80
2019-01-27T11:39:33.373Z,8.80
2019-01-27T11:44:44.498Z,8.80
2019-01-27T11:49:59.957Z,9.00
2019-01-27T11:54:52.821Z,8.90
2019-01-27T11:59:53.191Z,9.10
2019-01-27T12:04:46.088Z,10.10
2019-01-27T12:09:39.039Z,9.20
2019-01-27T12:14:31.885Z,9.00
2019-01-27T12:19:24.771Z,8.90
2019-01-27T12:24:19.421Z,8.70
2019-01-27T12:29:12.380Z,8.70
2019-01-27T12:34:05.268Z,8.40
2019-01-27T12:38:58.089Z,8.50
2019-01-27T12:43:50.978Z,8.70
2019-01-27T12:48:43.808Z,9.20
2019-01-27T12:53:36.663Z,9.60
2019-01-27T12:58:29.481Z,9.80
2019-01-27T13:03:22.501Z,9.80
2019-01-27T13:08:17.158Z,9.40
2019-01-27T13:13:12.136Z,9.40
2019-01-27T13:18:04.769Z,9.40
2019-01-27T13:22:57.612Z,9.40
2019-01-27T13:27:50.618Z,9.50
2019-01-27T13:32:43.490Z,9.70
2019-01-27T13:37:36.373Z,9.80
2019-01-27T13:42:29.222Z,9.70
2019-01-27T13:47:22.148Z,9.20
2019-01-27T13:52:14.982Z,8.80
2019-01-27T13:57:07.832Z,8.50
2019-01-27T14:02:00.679Z,8.50
2019-01-27T14:06:53.569Z,8.50
2019-01-27T14:11:46.400Z,8.60
2019-01-27T14:16:39.379Z,8.70
2019-01-27T14:21:33.007Z,8.90
2019-01-27T14:26:25.816Z,9.00
2019-01-27T14:31:18.648Z,9.10
2019-01-27T14:36:11.495Z,8.90
2019-01-27T14:41:06.329Z,8.90
2019-01-27T14:45:59.407Z,8.50
2019-01-27T14:50:52.248Z,8.30
2019-01-27T14:55:45.082Z,8.20
2019-01-27T15:00:40.593Z,7.80
2019-01-27T15:05:33.401Z,7.60
2019-01-27T15:10:26.759Z,7.40
2019-01-27T15:15:20.065Z,7.60
2019-01-27T15:20:20.574Z,7.50
2019-01-27T15:25:13.396Z,7.50
2019-01-27T15:30:13.319Z,7.30
2019-01-27T15:35:08.267Z,7.10
2019-01-27T15:40:01.126Z,7.10
2019-01-27T15:44:54.036Z,7.10
2019-01-27T15:49:46.876Z,7.10
2019-01-27T15:54:39.711Z,7.10
2019-01-27T15:59:32.537Z,6.80
2019-01-27T16:04:25.404Z,6.40
2019-01-27T16:09:18.253Z,6.00
2019-01-27T16:14:11.106Z,6.00
2019-01-27T16:19:04.892Z,6.10
2019-01-27T16:24:00.475Z,6.10
2019-01-27T16:28:53.322Z,6.20
2019-01-27T16:34:02.980Z,6.30
2019-01-27T16:38:55.809Z,6.20
2019-01-27T16:43:50.556Z,6.00
2019-01-27T16:48:43.419Z,6.00
2019-01-27T16:53:36.224Z,6.00
2019-01-27T16:58:29.068Z,5.90
2019-01-27T17:03:21.928Z,6.00
2019-01-27T17:08:14.756Z,6.00
2019-01-27T17:13:07.628Z,6.00
2019-01-27T17:18:00.473Z,6.00
2019-01-27T17:22:53.305Z,6.10
2019-01-27T17:27:46.357Z,6.10
2019-01-27T17:32:39.200Z,6.20
2019-01-27T17:37:32.068Z,6.20
2019-01-27T17:42:26.703Z,6.20
2019-01-27T17:47:19.613Z,6.20
2019-01-27T17:52:12.477Z,6.20
2019-01-27T17:57:16.396Z,6.00
2019-01-27T18:02:44.150Z,6.10
2019-01-27T18:07:44.448Z,6.10
2019-01-27T18:12:41.583Z,6.10
2019-01-27T18:17:34.438Z,6.00
2019-01-27T18:22:27.277Z,5.80
2019-01-27T18:27:20.153Z,5.70
2019-01-27T18:32:13.018Z,5.60
2019-01-27T18:37:06.059Z,5.70
2019-01-27T18:41:58.901Z,5.90
2019-01-27T18:46:51.757Z,5.90
2019-01-27T18:51:44.590Z,5.90
2019-01-27T18:56:59.930Z,5.90
2019-01-27T19:02:05.067Z,5.90
2019-01-27T19:07:16.161Z,6.10
2019-01-27T19:12:21.118Z,6.00
2019-01-27T19:17:33.549Z,5.80
2019-01-27T19:22:45.989Z,5.70
2019-01-27T19:28:01.493Z,5.40
2019-01-27T19:33:04.263Z,5.60
2019-01-27T19:38:19.320Z,5.30
2019-01-27T19:43:30.449Z,5.20
2019-01-27T19:48:33.340Z,5.30
2019-01-27T19:53:54.776Z,5.40
2019-01-27T19:58:55.134Z,5.50
2019-01-27T20:04:07.593Z,5.30
2019-01-27T20:09:32.451Z,5.00
2019-01-27T20:14:44.052Z,5.00
2019-01-27T20:19:47.990Z,4.90
2019-01-27T20:24:58.992Z,4.80
2019-01-27T20:30:29.861Z,4.70
2019-01-27T20:35:30.072Z,4.70
2019-01-27T20:40:42.599Z,4.70
2019-01-27T20:45:41.421Z,4.90
2019-01-27T20:50:39.909Z,4.80
2019-01-27T21:01:13.523Z,5.00
2019-01-27T21:06:21.387Z,4.90
2019-01-27T21:11:42.615Z,4.70
2019-01-27T21:16:45.492Z,4.70
2019-01-27T21:21:38.349Z,4.80
2019-01-27T21:26:31.188Z,4.70
2019-01-27T21:31:23.999Z,4.60
2019-01-27T21:36:17.153Z,4.50
2019-01-27T21:41:10.024Z,4.20
2019-01-27T21:46:02.841Z,4.10
2019-01-27T21:50:55.778Z,4.20
2019-01-27T21:55:48.712Z,4.40
2019-01-27T22:00:41.558Z,4.60
2019-01-27T22:05:34.480Z,4.60
2019-01-27T22:10:27.407Z,4.60
2019-01-27T22:15:20.259Z,4.60
2019-01-27T22:20:14.833Z,4.60
2019-01-27T22:25:09.342Z,4.50
2019-01-27T22:30:02.179Z,4.50
2019-01-27T22:34:55.019Z,4.60
2019-01-27T22:39:47.885Z,4.60
2019-01-27T22:44:40.795Z,4.70
2019-01-27T22:49:33.627Z,4.70
2019-01-27T22:54:26.480Z,4.70
2019-01-27T22:59:19.353Z,4.70
2019-01-27T23:04:12.260Z,4.60
2019-01-27T23:09:12.542Z,4.50
2019-01-27T23:14:09.736Z,4.80
2019-01-27T23:19:02.631Z,4.90
2019-01-27T23:23:55.503Z,4.90
2019-01-27T23:28:48.328Z,4.80
2019-01-27T23:33:41.193Z,4.90
2019-01-27T23:38:34.032Z,5.00
2019-01-27T23:43:27.039Z,4.90
2019-01-27T23:48:19.964Z,4.90
2019-01-27T23:53:12.807Z,4.90
2019-01-27T23:58:05.649Z,4.90
